sensor_id;sensor_type;location;lat;lon;timestamp;P1;durP1;ratioP1;P2;durP2;ratioP2
25838;SDS011;13669;50.186;27.062;2022-12-11T00:01:20;8.55;;;4.32;;
25838;SDS011;13669;50.186;27.062;2022-12-11T00:03:49;7.35;;;3.78;;
25838;SDS011;13669;50.186;27.062;2022-12-11T00:06:18;8.20;;;4.72;;
25838;SDS011;13669;50.186;27.062;2022-12-11T00:08:49;9.48;;;4.80;;
25838;SDS011;13669;50.186;27.062;2022-12-11T00:11:18;6.85;;;3.72;;
25838;SDS011;13669;50.186;27.062;2022-12-11T00:13:46;9.27;;;4.32;;
25838;SDS011;13669;50.186;27.062;2022-12-11T00:16:14;8.55;;;5.03;;
25838;SDS011;13669;50.186;27.062;2022-12-11T00:18:42;8.80;;;4.57;;
25838;SDS011;13669;50.186;27.062;2022-12-11T00:21:11;9.93;;;5.20;;
25838;SDS011;13669;50.186;27.062;2022-12-11T00:23:40;9.93;;;5.45;;
25838;SDS011;13669;50.186;27.062;2022-12-11T00:26:09;11.48;;;5.53;;
25838;SDS011;13669;50.186;27.062;2022-12-11T00:28:41;9.93;;;5.25;;
25838;SDS011;13669;50.186;27.062;2022-12-11T00:31:14;10.02;;;5.32;;
25838;SDS011;13669;50.186;27.062;2022-12-11T00:33:43;11.95;;;5.28;;
25838;SDS011;13669;50.186;27.062;2022-12-11T00:36:16;9.45;;;4.93;;
25838;SDS011;13669;50.186;27.062;2022-12-11T00:38:51;10.52;;;5.32;;
25838;SDS011;13669;50.186;27.062;2022-12-11T00:41:19;9.55;;;4.35;;
25838;SDS011;13669;50.186;27.062;2022-12-11T00:43:47;11.57;;;5.47;;
25838;SDS011;13669;50.186;27.062;2022-12-11T00:46:15;13.98;;;6.10;;
25838;SDS011;13669;50.186;27.062;2022-12-11T00:48:42;11.07;;;5.47;;
25838;SDS011;13669;50.186;27.062;2022-12-11T00:51:10;12.73;;;5.70;;
25838;SDS011;13669;50.186;27.062;2022-12-11T00:53:38;9.63;;;4.80;;
25838;SDS011;13669;50.186;27.062;2022-12-11T00:56:12;11.68;;;5.65;;
25838;SDS011;13669;50.186;27.062;2022-12-11T00:58:42;10.38;;;5.88;;
25838;SDS011;13669;50.186;27.062;2022-12-11T01:01:12;10.35;;;5.28;;
25838;SDS011;13669;50.186;27.062;2022-12-11T01:03:42;10.48;;;5.57;;
25838;SDS011;13669;50.186;27.062;2022-12-11T05:20:59;26.10;;;11.05;;
25838;SDS011;13669;50.186;27.062;2022-12-11T05:23:32;14.95;;;8.07;;
25838;SDS011;13669;50.186;27.062;2022-12-11T05:26:01;12.80;;;7.45;;
25838;SDS011;13669;50.186;27.062;2022-12-11T05:28:34;15.63;;;8.02;;
25838;SDS011;13669;50.186;27.062;2022-12-11T05:31:04;13.70;;;7.32;;
25838;SDS011;13669;50.186;27.062;2022-12-11T05:33:40;16.55;;;6.85;;
25838;SDS011;13669;50.186;27.062;2022-12-11T05:36:08;15.20;;;7.40;;
25838;SDS011;13669;50.186;27.062;2022-12-11T05:38:48;18.63;;;8.43;;
25838;SDS011;13669;50.186;27.062;2022-12-11T05:41:17;20.95;;;7.97;;
25838;SDS011;13669;50.186;27.062;2022-12-11T05:43:46;17.70;;;7.10;;
25838;SDS011;13669;50.186;27.062;2022-12-11T05:46:15;19.08;;;7.68;;
25838;SDS011;13669;50.186;27.062;2022-12-11T05:48:48;16.33;;;8.23;;
25838;SDS011;13669;50.186;27.062;2022-12-11T05:51:17;17.08;;;7.40;;
25838;SDS011;13669;50.186;27.062;2022-12-11T05:53:46;13.82;;;7.03;;
25838;SDS011;13669;50.186;27.062;2022-12-11T05:56:15;15.05;;;6.60;;
25838;SDS011;13669;50.186;27.062;2022-12-11T06:01:35;16.95;;;7.40;;
25838;SDS011;13669;50.186;27.062;2022-12-11T06:04:03;13.77;;;6.13;;
25838;SDS011;13669;50.186;27.062;2022-12-11T06:06:33;16.48;;;6.40;;
25838;SDS011;13669;50.186;27.062;2022-12-11T06:09:01;13.45;;;6.22;;
25838;SDS011;13669;50.186;27.062;2022-12-11T06:11:30;11.00;;;5.60;;
25838;SDS011;13669;50.186;27.062;2022-12-11T06:13:59;16.40;;;6.50;;
25838;SDS011;13669;50.186;27.062;2022-12-11T06:16:29;10.23;;;5.93;;
25838;SDS011;13669;50.186;27.062;2022-12-11T06:18:57;10.50;;;5.43;;
25838;SDS011;13669;50.186;27.062;2022-12-11T06:21:28;12.23;;;6.03;;
25838;SDS011;13669;50.186;27.062;2022-12-11T06:23:58;14.27;;;6.30;;
25838;SDS011;13669;50.186;27.062;2022-12-11T06:26:28;12.32;;;6.15;;
25838;SDS011;13669;50.186;27.062;2022-12-11T06:28:58;15.65;;;6.40;;
25838;SDS011;13669;50.186;27.062;2022-12-11T06:31:25;9.10;;;5.20;;
25838;SDS011;13669;50.186;27.062;2022-12-11T06:33:53;14.80;;;7.47;;
25838;SDS011;13669;50.186;27.062;2022-12-11T06:36:21;21.50;;;8.82;;
25838;SDS011;13669;50.186;27.062;2022-12-11T06:38:50;16.25;;;8.23;;
25838;SDS011;13669;50.186;27.062;2022-12-11T06:41:18;17.08;;;8.63;;
25838;SDS011;13669;50.186;27.062;2022-12-11T06:43:45;17.70;;;8.25;;
25838;SDS011;13669;50.186;27.062;2022-12-11T06:46:17;15.00;;;7.35;;
25838;SDS011;13669;50.186;27.062;2022-12-11T06:48:46;16.35;;;7.47;;
25838;SDS011;13669;50.186;27.062;2022-12-11T06:51:15;11.68;;;6.32;;
25838;SDS011;13669;50.186;27.062;2022-12-11T06:53:49;15.88;;;7.45;;
25838;SDS011;13669;50.186;27.062;2022-12-11T06:56:21;20.98;;;6.82;;
25838;SDS011;13669;50.186;27.062;2022-12-11T06:58:50;12.50;;;6.25;;
25838;SDS011;13669;50.186;27.062;2022-12-11T07:01:22;14.30;;;6.57;;
25838;SDS011;13669;50.186;27.062;2022-12-11T07:03:52;20.48;;;8.50;;
25838;SDS011;13669;50.186;27.062;2022-12-11T07:06:21;25.38;;;10.52;;
25838;SDS011;13669;50.186;27.062;2022-12-11T07:08:49;19.27;;;9.40;;
25838;SDS011;13669;50.186;27.062;2022-12-11T07:11:18;21.67;;;9.32;;
25838;SDS011;13669;50.186;27.062;2022-12-11T07:13:46;21.30;;;8.88;;
25838;SDS011;13669;50.186;27.062;2022-12-11T07:16:14;23.30;;;8.15;;
25838;SDS011;13669;50.186;27.062;2022-12-11T07:18:45;19.45;;;6.47;;
25838;SDS011;13669;50.186;27.062;2022-12-11T07:21:15;16.30;;;6.80;;
25838;SDS011;13669;50.186;27.062;2022-12-11T07:23:43;12.88;;;6.40;;
25838;SDS011;13669;50.186;27.062;2022-12-11T07:26:12;15.88;;;5.88;;
25838;SDS011;13669;50.186;27.062;2022-12-11T07:28:40;9.93;;;5.53;;
25838;SDS011;13669;50.186;27.062;2022-12-11T07:31:09;12.40;;;5.93;;
25838;SDS011;13669;50.186;27.062;2022-12-11T07:33:39;10.60;;;5.55;;
25838;SDS011;13669;50.186;27.062;2022-12-11T07:36:08;14.38;;;5.90;;
25838;SDS011;13669;50.186;27.062;2022-12-11T07:38:37;10.13;;;5.15;;
25838;SDS011;13669;50.186;27.062;2022-12-11T07:41:06;8.77;;;5.00;;
25838;SDS011;13669;50.186;27.062;2022-12-11T07:43:36;9.70;;;4.90;;
25838;SDS011;13669;50.186;27.062;2022-12-11T07:46:05;9.75;;;5.13;;
25838;SDS011;13669;50.186;27.062;2022-12-11T07:48:37;11.27;;;5.43;;
25838;SDS011;13669;50.186;27.062;2022-12-11T07:51:16;10.45;;;5.25;;
25838;SDS011;13669;50.186;27.062;2022-12-11T07:53:56;9.00;;;4.80;;
25838;SDS011;13669;50.186;27.062;2022-12-11T07:56:28;14.02;;;6.28;;
25838;SDS011;13669;50.186;27.062;2022-12-11T07:59:00;10.25;;;5.50;;
25838;SDS011;13669;50.186;27.062;2022-12-11T08:01:30;15.57;;;6.53;;
25838;SDS011;13669;50.186;27.062;2022-12-11T08:04:02;7.88;;;4.88;;
25838;SDS011;13669;50.186;27.062;2022-12-11T08:06:31;12.40;;;5.75;;
25838;SDS011;13669;50.186;27.062;2022-12-11T08:09:02;11.15;;;6.45;;
25838;SDS011;13669;50.186;27.062;2022-12-11T08:11:31;14.98;;;6.65;;
25838;SDS011;13669;50.186;27.062;2022-12-11T08:13:59;12.50;;;6.45;;
25838;SDS011;13669;50.186;27.062;2022-12-11T08:16:28;15.60;;;8.07;;
25838;SDS011;13669;50.186;27.062;2022-12-11T08:18:56;15.25;;;7.07;;
25838;SDS011;13669;50.186;27.062;2022-12-11T08:21:24;15.98;;;6.10;;
25838;SDS011;13669;50.186;27.062;2022-12-11T08:23:53;15.75;;;8.13;;
25838;SDS011;13669;50.186;27.062;2022-12-11T08:26:23;12.05;;;6.93;;
25838;SDS011;13669;50.186;27.062;2022-12-11T08:28:55;11.77;;;7.18;;
25838;SDS011;13669;50.186;27.062;2022-12-11T08:31:23;11.75;;;6.85;;
25838;SDS011;13669;50.186;27.062;2022-12-11T08:33:51;11.25;;;6.30;;
25838;SDS011;13669;50.186;27.062;2022-12-11T08:36:21;12.55;;;7.10;;
25838;SDS011;13669;50.186;27.062;2022-12-11T08:38:50;15.38;;;7.05;;
25838;SDS011;13669;50.186;27.062;2022-12-11T08:41:18;13.25;;;6.57;;
25838;SDS011;13669;50.186;27.062;2022-12-11T08:43:48;14.03;;;6.40;;
25838;SDS011;13669;50.186;27.062;2022-12-11T08:46:22;12.45;;;6.28;;
25838;SDS011;13669;50.186;27.062;2022-12-11T08:48:51;11.35;;;6.65;;
25838;SDS011;13669;50.186;27.062;2022-12-11T08:51:21;13.18;;;6.22;;
25838;SDS011;13669;50.186;27.062;2022-12-11T08:53:50;9.18;;;5.18;;
25838;SDS011;13669;50.186;27.062;2022-12-11T08:56:20;11.95;;;5.72;;
25838;SDS011;13669;50.186;27.062;2022-12-11T08:58:49;10.43;;;5.55;;
25838;SDS011;13669;50.186;27.062;2022-12-11T09:01:18;12.85;;;5.18;;
25838;SDS011;13669;50.186;27.062;2022-12-11T13:18:42;32.90;;;18.45;;
25838;SDS011;13669;50.186;27.062;2022-12-11T13:26:48;20.70;;;11.27;;
25838;SDS011;13669;50.186;27.062;2022-12-11T13:34:57;33.80;;;16.80;;
25838;SDS011;13669;50.186;27.062;2022-12-11T13:37:33;19.60;;;11.13;;
25838;SDS011;13669;50.186;27.062;2022-12-11T13:40:06;16.17;;;9.25;;
25838;SDS011;13669;50.186;27.062;2022-12-11T13:42:49;15.30;;;8.20;;
25838;SDS011;13669;50.186;27.062;2022-12-11T13:45:25;18.30;;;11.73;;
25838;SDS011;13669;50.186;27.062;2022-12-11T13:48:12;23.20;;;11.77;;
25838;SDS011;13669;50.186;27.062;2022-12-11T13:50:49;22.08;;;11.35;;
25838;SDS011;13669;50.186;27.062;2022-12-11T13:53:19;31.50;;;16.42;;
25838;SDS011;13669;50.186;27.062;2022-12-11T13:56:00;33.60;;;16.80;;
25838;SDS011;13669;50.186;27.062;2022-12-11T13:58:33;32.08;;;15.55;;
25838;SDS011;13669;50.186;27.062;2022-12-11T14:01:05;34.67;;;17.83;;
25838;SDS011;13669;50.186;27.062;2022-12-11T14:03:54;30.10;;;16.05;;
25838;SDS011;13669;50.186;27.062;2022-12-11T14:06:25;39.05;;;20.90;;
25838;SDS011;13669;50.186;27.062;2022-12-11T14:08:55;27.02;;;13.00;;
25838;SDS011;13669;50.186;27.062;2022-12-11T14:11:29;25.50;;;13.98;;
25838;SDS011;13669;50.186;27.062;2022-12-11T14:14:01;20.75;;;12.15;;
25838;SDS011;13669;50.186;27.062;2022-12-11T14:16:31;19.08;;;10.68;;
25838;SDS011;13669;50.186;27.062;2022-12-11T14:19:03;18.55;;;9.82;;
25838;SDS011;13669;50.186;27.062;2022-12-11T14:21:33;13.00;;;7.57;;
25838;SDS011;13669;50.186;27.062;2022-12-11T14:24:03;12.82;;;7.07;;
25838;SDS011;13669;50.186;27.062;2022-12-11T14:26:33;12.68;;;7.20;;
25838;SDS011;13669;50.186;27.062;2022-12-11T14:29:04;12.40;;;5.70;;
25838;SDS011;13669;50.186;27.062;2022-12-11T14:31:36;9.30;;;5.85;;
25838;SDS011;13669;50.186;27.062;2022-12-11T14:34:16;8.50;;;4.75;;
25838;SDS011;13669;50.186;27.062;2022-12-11T14:36:51;9.68;;;4.68;;
25838;SDS011;13669;50.186;27.062;2022-12-11T14:39:22;11.55;;;6.03;;
25838;SDS011;13669;50.186;27.062;2022-12-11T14:44:31;12.05;;;5.65;;
25838;SDS011;13669;50.186;27.062;2022-12-11T14:47:10;11.65;;;5.97;;
25838;SDS011;13669;50.186;27.062;2022-12-11T14:52:26;15.27;;;7.35;;
25838;SDS011;13669;50.186;27.062;2022-12-11T14:55:00;12.52;;;6.53;;
25838;SDS011;13669;50.186;27.062;2022-12-11T14:57:51;10.93;;;5.32;;
25838;SDS011;13669;50.186;27.062;2022-12-11T15:00:32;12.85;;;6.93;;
25838;SDS011;13669;50.186;27.062;2022-12-11T15:03:20;14.35;;;6.85;;
25838;SDS011;13669;50.186;27.062;2022-12-11T15:05:50;16.65;;;8.43;;
25838;SDS011;13669;50.186;27.062;2022-12-11T15:08:26;10.43;;;5.68;;
25838;SDS011;13669;50.186;27.062;2022-12-11T15:13:26;8.93;;;4.97;;
25838;SDS011;13669;50.186;27.062;2022-12-11T15:15:54;8.40;;;4.00;;
25838;SDS011;13669;50.186;27.062;2022-12-11T15:18:25;8.90;;;4.95;;
25838;SDS011;13669;50.186;27.062;2022-12-11T15:20:56;8.35;;;4.57;;
25838;SDS011;13669;50.186;27.062;2022-12-11T15:23:27;4.85;;;2.70;;
25838;SDS011;13669;50.186;27.062;2022-12-11T15:25:56;3.58;;;2.17;;
25838;SDS011;13669;50.186;27.062;2022-12-11T15:28:35;3.30;;;2.10;;
25838;SDS011;13669;50.186;27.062;2022-12-11T15:31:06;4.43;;;2.55;;
25838;SDS011;13669;50.186;27.062;2022-12-11T15:33:49;6.93;;;3.70;;
25838;SDS011;13669;50.186;27.062;2022-12-11T15:41:25;15.80;;;5.35;;
25838;SDS011;13669;50.186;27.062;2022-12-11T15:43:54;5.70;;;3.15;;
25838;SDS011;13669;50.186;27.062;2022-12-11T15:46:24;6.53;;;2.20;;
25838;SDS011;13669;50.186;27.062;2022-12-11T15:48:52;4.38;;;2.53;;
25838;SDS011;13669;50.186;27.062;2022-12-11T15:51:22;5.68;;;3.95;;
25838;SDS011;13669;50.186;27.062;2022-12-11T15:53:51;6.18;;;3.00;;
25838;SDS011;13669;50.186;27.062;2022-12-11T15:56:18;4.47;;;2.30;;
25838;SDS011;13669;50.186;27.062;2022-12-11T15:58:46;5.88;;;3.83;;
25838;SDS011;13669;50.186;27.062;2022-12-11T16:01:15;2.42;;;1.52;;
25838;SDS011;13669;50.186;27.062;2022-12-11T16:03:43;3.45;;;1.73;;
25838;SDS011;13669;50.186;27.062;2022-12-11T16:06:11;2.95;;;1.67;;
25838;SDS011;13669;50.186;27.062;2022-12-11T16:08:39;1.90;;;1.08;;
25838;SDS011;13669;50.186;27.062;2022-12-11T16:11:08;2.17;;;1.10;;
25838;SDS011;13669;50.186;27.062;2022-12-11T16:13:39;4.32;;;1.90;;
25838;SDS011;13669;50.186;27.062;2022-12-11T16:16:07;2.70;;;0.95;;
25838;SDS011;13669;50.186;27.062;2022-12-11T16:18:35;3.60;;;1.95;;
25838;SDS011;13669;50.186;27.062;2022-12-11T16:21:04;2.65;;;1.15;;
25838;SDS011;13669;50.186;27.062;2022-12-11T16:23:33;1.33;;;0.65;;
25838;SDS011;13669;50.186;27.062;2022-12-11T16:26:05;1.52;;;0.63;;
25838;SDS011;13669;50.186;27.062;2022-12-11T16:28:35;1.90;;;0.73;;
25838;SDS011;13669;50.186;27.062;2022-12-11T16:31:03;1.95;;;0.90;;
25838;SDS011;13669;50.186;27.062;2022-12-11T16:33:40;1.67;;;1.02;;
25838;SDS011;13669;50.186;27.062;2022-12-11T16:36:15;1.33;;;0.60;;
25838;SDS011;13669;50.186;27.062;2022-12-11T16:38:47;1.15;;;0.70;;
25838;SDS011;13669;50.186;27.062;2022-12-11T16:41:20;1.48;;;0.63;;
25838;SDS011;13669;50.186;27.062;2022-12-11T16:43:48;0.85;;;0.60;;
25838;SDS011;13669;50.186;27.062;2022-12-11T16:46:17;3.10;;;1.10;;
25838;SDS011;13669;50.186;27.062;2022-12-11T16:48:45;1.67;;;1.02;;
25838;SDS011;13669;50.186;27.062;2022-12-11T16:51:13;1.70;;;0.95;;
25838;SDS011;13669;50.186;27.062;2022-12-11T16:53:41;2.80;;;1.70;;
25838;SDS011;13669;50.186;27.062;2022-12-11T16:56:08;3.58;;;1.80;;
25838;SDS011;13669;50.186;27.062;2022-12-11T16:58:36;1.73;;;0.90;;
25838;SDS011;13669;50.186;27.062;2022-12-11T17:01:07;2.80;;;1.58;;
25838;SDS011;13669;50.186;27.062;2022-12-11T17:03:37;1.98;;;1.30;;
25838;SDS011;13669;50.186;27.062;2022-12-11T17:06:06;1.80;;;1.00;;
25838;SDS011;13669;50.186;27.062;2022-12-11T17:08:35;9.13;;;1.30;;
25838;SDS011;13669;50.186;27.062;2022-12-11T17:11:04;2.05;;;1.23;;
25838;SDS011;13669;50.186;27.062;2022-12-11T17:13:33;2.80;;;1.63;;
25838;SDS011;13669;50.186;27.062;2022-12-11T17:16:12;3.40;;;1.20;;
25838;SDS011;13669;50.186;27.062;2022-12-11T17:18:42;1.67;;;1.00;;
25838;SDS011;13669;50.186;27.062;2022-12-11T17:21:12;2.22;;;1.38;;
25838;SDS011;13669;50.186;27.062;2022-12-11T17:23:42;2.17;;;1.10;;
25838;SDS011;13669;50.186;27.062;2022-12-11T17:26:10;3.05;;;1.50;;
25838;SDS011;13669;50.186;27.062;2022-12-11T17:28:38;1.63;;;1.15;;
25838;SDS011;13669;50.186;27.062;2022-12-11T17:31:07;1.38;;;0.98;;
25838;SDS011;13669;50.186;27.062;2022-12-11T17:33:45;1.23;;;0.80;;
25838;SDS011;13669;50.186;27.062;2022-12-11T17:36:13;3.72;;;2.35;;
25838;SDS011;13669;50.186;27.062;2022-12-11T17:38:42;5.18;;;2.38;;
25838;SDS011;13669;50.186;27.062;2022-12-11T17:41:11;5.45;;;1.98;;
25838;SDS011;13669;50.186;27.062;2022-12-11T17:43:47;7.65;;;1.33;;
25838;SDS011;13669;50.186;27.062;2022-12-11T17:46:15;2.33;;;1.50;;
25838;SDS011;13669;50.186;27.062;2022-12-11T17:48:44;2.40;;;1.55;;
25838;SDS011;13669;50.186;27.062;2022-12-11T17:51:13;3.05;;;1.63;;
25838;SDS011;13669;50.186;27.062;2022-12-11T17:53:50;2.63;;;1.20;;
25838;SDS011;13669;50.186;27.062;2022-12-11T17:56:21;3.05;;;1.60;;
25838;SDS011;13669;50.186;27.062;2022-12-11T17:58:49;2.80;;;1.35;;
25838;SDS011;13669;50.186;27.062;2022-12-11T18:01:17;2.00;;;0.98;;
25838;SDS011;13669;50.186;27.062;2022-12-11T18:03:45;3.10;;;1.02;;
25838;SDS011;13669;50.186;27.062;2022-12-11T18:06:13;4.30;;;1.98;;
25838;SDS011;13669;50.186;27.062;2022-12-11T18:08:42;2.40;;;1.35;;
25838;SDS011;13669;50.186;27.062;2022-12-11T18:11:15;3.65;;;1.80;;
25838;SDS011;13669;50.186;27.062;2022-12-11T18:13:44;2.35;;;1.58;;
25838;SDS011;13669;50.186;27.062;2022-12-11T18:16:13;3.33;;;1.77;;
25838;SDS011;13669;50.186;27.062;2022-12-11T18:18:46;4.57;;;2.40;;
25838;SDS011;13669;50.186;27.062;2022-12-11T18:21:15;3.40;;;1.85;;
25838;SDS011;13669;50.186;27.062;2022-12-11T18:26:12;4.38;;;1.73;;
25838;SDS011;13669;50.186;27.062;2022-12-11T18:28:40;3.03;;;1.52;;
25838;SDS011;13669;50.186;27.062;2022-12-11T18:31:09;3.33;;;1.52;;
25838;SDS011;13669;50.186;27.062;2022-12-11T18:33:37;3.08;;;1.42;;
25838;SDS011;13669;50.186;27.062;2022-12-11T18:36:06;4.65;;;2.05;;
25838;SDS011;13669;50.186;27.062;2022-12-11T18:38:34;3.88;;;1.52;;
25838;SDS011;13669;50.186;27.062;2022-12-11T18:41:02;2.70;;;1.27;;
25838;SDS011;13669;50.186;27.062;2022-12-11T18:43:30;4.05;;;1.95;;
25838;SDS011;13669;50.186;27.062;2022-12-11T18:45:58;3.35;;;1.80;;
25838;SDS011;13669;50.186;27.062;2022-12-11T18:48:25;4.22;;;1.75;;
25838;SDS011;13669;50.186;27.062;2022-12-11T18:50:53;2.30;;;1.40;;
25838;SDS011;13669;50.186;27.062;2022-12-11T18:53:21;3.72;;;2.20;;
25838;SDS011;13669;50.186;27.062;2022-12-11T18:55:48;2.90;;;1.55;;
25838;SDS011;13669;50.186;27.062;2022-12-11T18:58:18;6.03;;;2.55;;
25838;SDS011;13669;50.186;27.062;2022-12-11T19:00:46;4.93;;;2.28;;
25838;SDS011;13669;50.186;27.062;2022-12-11T19:03:13;3.08;;;2.03;;
25838;SDS011;13669;50.186;27.062;2022-12-11T19:05:42;3.17;;;1.90;;
25838;SDS011;13669;50.186;27.062;2022-12-11T19:08:12;2.78;;;1.58;;
25838;SDS011;13669;50.186;27.062;2022-12-11T19:10:43;2.65;;;1.60;;
25838;SDS011;13669;50.186;27.062;2022-12-11T19:13:12;5.38;;;2.63;;
25838;SDS011;13669;50.186;27.062;2022-12-11T19:15:40;3.60;;;1.67;;
25838;SDS011;13669;50.186;27.062;2022-12-11T19:18:09;2.47;;;1.45;;
25838;SDS011;13669;50.186;27.062;2022-12-11T19:20:38;4.68;;;2.05;;
25838;SDS011;13669;50.186;27.062;2022-12-11T19:23:15;2.67;;;1.52;;
25838;SDS011;13669;50.186;27.062;2022-12-11T19:25:44;3.63;;;2.05;;
25838;SDS011;13669;50.186;27.062;2022-12-11T19:28:12;6.57;;;2.95;;
25838;SDS011;13669;50.186;27.062;2022-12-11T19:30:41;4.13;;;1.92;;
25838;SDS011;13669;50.186;27.062;2022-12-11T19:33:14;3.75;;;2.08;;
25838;SDS011;13669;50.186;27.062;2022-12-11T19:35:42;4.50;;;2.05;;
25838;SDS011;13669;50.186;27.062;2022-12-11T19:38:11;4.55;;;2.40;;
25838;SDS011;13669;50.186;27.062;2022-12-11T19:40:39;7.28;;;2.95;;
25838;SDS011;13669;50.186;27.062;2022-12-11T19:43:08;6.60;;;2.67;;
25838;SDS011;13669;50.186;27.062;2022-12-11T19:45:36;4.22;;;1.83;;
25838;SDS011;13669;50.186;27.062;2022-12-11T19:48:04;3.55;;;1.73;;
25838;SDS011;13669;50.186;27.062;2022-12-11T19:50:33;7.22;;;3.65;;
25838;SDS011;13669;50.186;27.062;2022-12-11T19:53:02;4.65;;;2.67;;
25838;SDS011;13669;50.186;27.062;2022-12-11T19:55:29;7.40;;;3.05;;
25838;SDS011;13669;50.186;27.062;2022-12-11T19:57:57;8.35;;;3.83;;
25838;SDS011;13669;50.186;27.062;2022-12-11T20:00:25;5.03;;;2.35;;
25838;SDS011;13669;50.186;27.062;2022-12-11T20:02:52;4.38;;;2.28;;
25838;SDS011;13669;50.186;27.062;2022-12-11T20:05:20;5.22;;;2.67;;
25838;SDS011;13669;50.186;27.062;2022-12-11T20:07:48;4.63;;;1.90;;
25838;SDS011;13669;50.186;27.062;2022-12-11T20:10:16;3.63;;;1.95;;
25838;SDS011;13669;50.186;27.062;2022-12-11T20:12:43;3.00;;;1.75;;
25838;SDS011;13669;50.186;27.062;2022-12-11T20:15:11;4.63;;;2.22;;
25838;SDS011;13669;50.186;27.062;2022-12-11T20:17:38;7.35;;;3.15;;
25838;SDS011;13669;50.186;27.062;2022-12-11T20:20:10;5.18;;;2.38;;
25838;SDS011;13669;50.186;27.062;2022-12-11T20:22:37;4.28;;;2.13;;
25838;SDS011;13669;50.186;27.062;2022-12-11T20:25:05;3.95;;;1.63;;
25838;SDS011;13669;50.186;27.062;2022-12-11T20:27:33;4.43;;;2.40;;
25838;SDS011;13669;50.186;27.062;2022-12-11T20:30:00;5.47;;;2.50;;
25838;SDS011;13669;50.186;27.062;2022-12-11T20:32:28;5.68;;;2.42;;
25838;SDS011;13669;50.186;27.062;2022-12-11T20:34:56;6.05;;;3.10;;
25838;SDS011;13669;50.186;27.062;2022-12-11T20:37:24;5.78;;;2.88;;
25838;SDS011;13669;50.186;27.062;2022-12-11T20:39:52;6.85;;;3.33;;
25838;SDS011;13669;50.186;27.062;2022-12-11T20:42:20;5.90;;;3.45;;
25838;SDS011;13669;50.186;27.062;2022-12-11T20:44:47;6.85;;;2.92;;
25838;SDS011;13669;50.186;27.062;2022-12-11T20:47:16;5.05;;;2.50;;
25838;SDS011;13669;50.186;27.062;2022-12-11T20:49:47;5.53;;;2.90;;
25838;SDS011;13669;50.186;27.062;2022-12-11T20:52:16;6.20;;;3.25;;
25838;SDS011;13669;50.186;27.062;2022-12-11T20:54:44;6.07;;;3.10;;
25838;SDS011;13669;50.186;27.062;2022-12-11T20:57:12;10.15;;;3.70;;
25838;SDS011;13669;50.186;27.062;2022-12-11T20:59:42;6.28;;;3.28;;
25838;SDS011;13669;50.186;27.062;2022-12-11T21:02:11;8.70;;;3.67;;
25838;SDS011;13669;50.186;27.062;2022-12-11T21:04:39;7.93;;;3.80;;
25838;SDS011;13669;50.186;27.062;2022-12-11T21:07:08;7.97;;;3.83;;
25838;SDS011;13669;50.186;27.062;2022-12-11T21:09:36;6.25;;;3.05;;
25838;SDS011;13669;50.186;27.062;2022-12-11T21:12:04;6.10;;;2.60;;
25838;SDS011;13669;50.186;27.062;2022-12-11T21:14:32;6.93;;;3.83;;
25838;SDS011;13669;50.186;27.062;2022-12-11T21:17:00;6.72;;;2.05;;
25838;SDS011;13669;50.186;27.062;2022-12-11T21:19:27;10.15;;;4.13;;
25838;SDS011;13669;50.186;27.062;2022-12-11T21:21:55;4.55;;;2.13;;
25838;SDS011;13669;50.186;27.062;2022-12-11T21:24:24;6.88;;;3.13;;
25838;SDS011;13669;50.186;27.062;2022-12-11T21:26:54;7.32;;;3.58;;
25838;SDS011;13669;50.186;27.062;2022-12-11T21:29:24;5.50;;;2.85;;
25838;SDS011;13669;50.186;27.062;2022-12-11T21:31:53;8.45;;;3.88;;
25838;SDS011;13669;50.186;27.062;2022-12-11T21:34:21;6.88;;;3.65;;
25838;SDS011;13669;50.186;27.062;2022-12-11T21:36:51;7.13;;;3.83;;
25838;SDS011;13669;50.186;27.062;2022-12-11T21:39:23;3.70;;;2.00;;
25838;SDS011;13669;50.186;27.062;2022-12-11T21:41:52;5.18;;;2.65;;
25838;SDS011;13669;50.186;27.062;2022-12-11T21:44:19;6.63;;;2.65;;
25838;SDS011;13669;50.186;27.062;2022-12-11T21:47:07;8.65;;;3.08;;
25838;SDS011;13669;50.186;27.062;2022-12-11T21:49:35;5.93;;;3.00;;
25838;SDS011;13669;50.186;27.062;2022-12-11T21:52:03;8.50;;;2.90;;
25838;SDS011;13669;50.186;27.062;2022-12-11T21:54:31;8.32;;;4.15;;
25838;SDS011;13669;50.186;27.062;2022-12-11T21:56:58;11.57;;;4.93;;
25838;SDS011;13669;50.186;27.062;2022-12-11T21:59:26;7.20;;;2.92;;
25838;SDS011;13669;50.186;27.062;2022-12-11T22:01:54;6.90;;;3.47;;
25838;SDS011;13669;50.186;27.062;2022-12-11T22:04:22;4.80;;;2.22;;
25838;SDS011;13669;50.186;27.062;2022-12-11T22:06:49;7.75;;;3.20;;
25838;SDS011;13669;50.186;27.062;2022-12-11T22:09:16;7.82;;;3.58;;
25838;SDS011;13669;50.186;27.062;2022-12-11T22:11:44;7.85;;;3.35;;
25838;SDS011;13669;50.186;27.062;2022-12-11T22:14:16;7.90;;;3.80;;
25838;SDS011;13669;50.186;27.062;2022-12-11T22:16:44;8.43;;;3.65;;
25838;SDS011;13669;50.186;27.062;2022-12-11T22:19:11;4.95;;;2.30;;
25838;SDS011;13669;50.186;27.062;2022-12-11T22:21:39;10.32;;;4.28;;
25838;SDS011;13669;50.186;27.062;2022-12-11T22:24:07;6.43;;;3.30;;
25838;SDS011;13669;50.186;27.062;2022-12-11T22:26:34;8.02;;;3.45;;
25838;SDS011;13669;50.186;27.062;2022-12-11T22:29:02;10.02;;;3.70;;
25838;SDS011;13669;50.186;27.062;2022-12-11T22:31:29;8.73;;;3.53;;
25838;SDS011;13669;50.186;27.062;2022-12-11T22:33:57;10.88;;;4.50;;
25838;SDS011;13669;50.186;27.062;2022-12-11T22:36:25;7.40;;;3.90;;
25838;SDS011;13669;50.186;27.062;2022-12-11T22:38:53;9.45;;;4.63;;
25838;SDS011;13669;50.186;27.062;2022-12-11T22:41:25;9.07;;;4.63;;
25838;SDS011;13669;50.186;27.062;2022-12-11T22:43:55;9.50;;;4.60;;
25838;SDS011;13669;50.186;27.062;2022-12-11T22:46:24;8.68;;;3.70;;
25838;SDS011;13669;50.186;27.062;2022-12-11T22:48:54;13.57;;;4.85;;
25838;SDS011;13669;50.186;27.062;2022-12-11T22:51:21;13.98;;;4.57;;
25838;SDS011;13669;50.186;27.062;2022-12-11T22:53:48;8.50;;;4.30;;
25838;SDS011;13669;50.186;27.062;2022-12-11T22:56:16;10.07;;;4.28;;
25838;SDS011;13669;50.186;27.062;2022-12-11T22:58:44;12.90;;;5.18;;
25838;SDS011;13669;50.186;27.062;2022-12-11T23:01:12;8.93;;;4.47;;
25838;SDS011;13669;50.186;27.062;2022-12-11T23:03:42;8.35;;;4.65;;
25838;SDS011;13669;50.186;27.062;2022-12-11T23:06:11;11.38;;;5.13;;
25838;SDS011;13669;50.186;27.062;2022-12-11T23:08:40;8.55;;;4.30;;
25838;SDS011;13669;50.186;27.062;2022-12-11T23:11:09;7.07;;;3.13;;
25838;SDS011;13669;50.186;27.062;2022-12-11T23:13:39;8.88;;;3.72;;
25838;SDS011;13669;50.186;27.062;2022-12-11T23:16:07;8.07;;;3.83;;
25838;SDS011;13669;50.186;27.062;2022-12-11T23:18:35;10.18;;;4.18;;
25838;SDS011;13669;50.186;27.062;2022-12-11T23:21:04;7.78;;;3.95;;
25838;SDS011;13669;50.186;27.062;2022-12-11T23:23:32;10.40;;;4.75;;
25838;SDS011;13669;50.186;27.062;2022-12-11T23:25:59;11.02;;;4.53;;
25838;SDS011;13669;50.186;27.062;2022-12-11T23:28:27;6.93;;;3.33;;
25838;SDS011;13669;50.186;27.062;2022-12-11T23:30:55;8.57;;;4.35;;
25838;SDS011;13669;50.186;27.062;2022-12-11T23:33:22;10.90;;;4.80;;
25838;SDS011;13669;50.186;27.062;2022-12-11T23:35:50;9.35;;;5.07;;
25838;SDS011;13669;50.186;27.062;2022-12-11T23:38:17;9.35;;;4.57;;
25838;SDS011;13669;50.186;27.062;2022-12-11T23:40:44;13.23;;;4.65;;
25838;SDS011;13669;50.186;27.062;2022-12-11T23:43:12;8.32;;;3.90;;